Time;durP1;ratioP1;P1;durP2;ratioP2;P2;SDS_P1;SDS_P2;PMS_P1;PMS_P2;Temp;Humidity;BMP_temperature;BMP_pressure;BME280_temperature;BME280_humidity;BME280_pressure;Samples;Min_cycle;Max_cycle;Signal;HPM_P1;HPM_P2
2022/09/18 00:01:10;;;;;;;0.28;0.20;;;23.80;53.80;;;;;;5052047;28;20072;-62
2022/09/18 00:03:38;;;;;;;0.30;0.30;;;23.80;53.80;;;;;;5051526;28;20485;-62
2022/09/18 00:06:11;;;;;;;0.40;0.40;;;23.80;53.80;;;;;;5051386;28;20067;-62
2022/09/18 00:08:39;;;;;;;0.13;0.13;;;23.80;53.90;;;;;;5051656;28;20056;-61
2022/09/18 00:11:09;;;;;;;0.15;0.15;;;23.70;53.80;;;;;;5051645;28;20041;-61
2022/09/18 00:13:37;;;;;;;0.10;0.10;;;23.80;53.80;;;;;;5046789;28;20049;-61
2022/09/18 00:16:06;;;;;;;0.40;0.40;;;23.80;53.80;;;;;;5050742;28;20045;-61
2022/09/18 00:18:34;;;;;;;0.15;0.15;;;23.80;53.80;;;;;;5051755;28;20099;-62
2022/09/18 00:21:12;;;;;;;0.13;0.13;;;23.80;53.80;;;;;;5050816;28;20049;-61
2022/09/18 00:23:40;;;;;;;0.68;0.35;;;23.80;53.80;;;;;;5051197;28;20049;-61
2022/09/18 00:26:10;;;;;;;0.10;0.10;;;23.80;53.80;;;;;;5050981;28;20099;-61
2022/09/18 00:28:37;;;;;;;0.25;0.25;;;23.70;53.80;;;;;;5051298;28;20053;-62
2022/09/18 00:31:11;;;;;;;0.10;0.10;;;23.80;53.80;;;;;;5051059;28;20044;-61
2022/09/18 00:33:39;;;;;;;0.25;0.25;;;23.80;53.80;;;;;;5033672;28;20331;-61
2022/09/18 00:36:11;;;;;;;0.28;0.20;;;23.80;53.80;;;;;;5032940;28;20049;-61
2022/09/18 00:38:38;;;;;;;0.20;0.20;;;23.80;53.80;;;;;;5033138;28;20448;-62
2022/09/18 00:41:10;;;;;;;0.13;0.10;;;23.80;53.70;;;;;;5050970;28;20044;-61
2022/09/18 00:43:37;;;;;;;0.20;0.20;;;23.80;53.70;;;;;;5051682;28;20049;-62
2022/09/18 00:46:20;;;;;;;0.20;0.20;;;23.80;53.60;;;;;;5050349;28;20417;-61
2022/09/18 00:49:21;;;;;;;0.20;0.20;;;23.80;53.60;;;;;;5046412;28;20132;-61
2022/09/18 00:51:52;;;;;;;0.32;0.30;;;23.80;53.60;;;;;;5050547;28;20049;-61
2022/09/18 00:54:28;;;;;;;0.20;0.20;;;23.80;53.60;;;;;;5049573;28;20079;-61
2022/09/18 00:56:59;;;;;;;0.77;0.35;;;23.80;53.60;;;;;;5050169;28;20398;-61
2022/09/18 00:59:29;;;;;;;1.00;0.30;;;23.80;53.50;;;;;;5050538;28;20502;-62
2022/09/18 01:01:57;;;;;;;0.22;0.22;;;23.80;53.50;;;;;;5050109;28;20055;-61
2022/09/18 01:04:26;;;;;;;0.20;0.20;;;23.80;53.50;;;;;;5050405;28;20056;-62
2022/09/18 01:07:09;;;;;;;0.20;0.20;;;23.80;53.50;;;;;;5032739;28;20056;-61
2022/09/18 01:10:05;;;;;;;0.22;0.22;;;23.80;53.50;;;;;;5050449;28;20076;-62
2022/09/18 01:12:59;;;;;;;0.17;0.17;;;23.80;53.60;;;;;;5036224;28;20454;-61
2022/09/18 01:15:51;;;;;;;0.25;0.20;;;23.80;53.60;;;;;;5049636;28;20049;-62
2022/09/18 01:18:50;;;;;;;0.25;0.10;;;23.70;53.50;;;;;;5050206;28;20140;-63
2022/09/18 01:21:37;;;;;;;0.17;0.17;;;23.70;53.60;;;;;;5047425;28;20056;-61
2022/09/18 01:24:44;;;;;;;0.30;0.15;;;23.70;53.60;;;;;;5050562;28;20052;-61
2022/09/18 01:27:42;;;;;;;0.43;0.13;;;23.70;53.60;;;;;;5031174;28;20417;-61
2022/09/18 01:30:11;;;;;;;0.43;0.20;;;23.70;53.60;;;;;;5050446;28;20052;-61
2022/09/18 01:32:49;;;;;;;0.17;0.10;;;23.70;53.60;;;;;;5050186;28;20312;-62
2022/09/18 01:35:24;;;;;;;0.10;0.10;;;23.70;53.60;;;;;;5049978;28;20449;-61
2022/09/18 01:38:19;;;;;;;0.20;0.10;;;23.70;53.60;;;;;;5049671;28;20488;-61
2022/09/18 01:40:52;;;;;;;0.10;0.10;;;23.70;53.60;;;;;;5050012;28;20057;-61
2022/09/18 01:43:20;;;;;;;0.30;0.30;;;23.70;53.60;;;;;;5049893;28;20045;-61
2022/09/18 01:45:51;;;;;;;0.10;0.10;;;23.70;53.60;;;;;;5049777;28;20055;-61
2022/09/18 01:48:32;;;;;;;0.17;0.17;;;23.70;53.60;;;;;;5049700;28;20036;-61
2022/09/18 01:51:13;;;;;;;0.10;0.10;;;23.70;53.60;;;;;;5047677;28;20053;-61
2022/09/18 01:53:44;;;;;;;0.40;0.40;;;23.70;53.60;;;;;;5048181;28;20477;-61
2022/09/18 01:56:21;;;;;;;0.13;0.13;;;23.70;53.60;;;;;;5049871;28;20051;-61
2022/09/18 01:58:52;;;;;;;0.13;0.10;;;23.70;53.60;;;;;;5049196;28;20048;-61
2022/09/18 02:01:21;;;;;;;0.35;0.20;;;23.70;53.60;;;;;;5049510;28;20045;-61
2022/09/18 02:03:55;;;;;;;0.20;0.10;;;23.70;53.60;;;;;;5049266;28;20088;-61
2022/09/18 02:06:31;;;;;;;0.93;0.10;;;23.70;53.70;;;;;;5049278;28;20052;-61
2022/09/18 02:08:59;;;;;;;0.50;0.20;;;23.70;53.70;;;;;;5049137;28;20301;-61
2022/09/18 02:11:28;;;;;;;0.30;0.30;;;23.70;53.60;;;;;;5049592;28;20131;-62
2022/09/18 02:14:09;;;;;;;0.10;0.10;;;23.70;53.70;;;;;;5049208;28;20622;-61
2022/09/18 02:16:43;;;;;;;0.20;0.20;;;23.70;53.60;;;;;;5049192;28;20055;-61
2022/09/18 02:19:24;;;;;;;0.10;0.10;;;23.70;53.70;;;;;;5048957;28;20052;-61
2022/09/18 02:21:54;;;;;;;0.20;0.20;;;23.70;53.70;;;;;;5049186;28;20084;-61
2022/09/18 02:24:27;;;;;;;0.10;0.10;;;23.70;53.70;;;;;;5044865;28;20053;-61
2022/09/18 02:26:56;;;;;;;0.30;0.30;;;23.70;53.70;;;;;;5049279;28;20052;-61
2022/09/18 02:29:24;;;;;;;0.10;0.10;;;23.70;53.70;;;;;;5048972;28;20052;-61
2022/09/18 02:31:52;;;;;;;0.40;0.25;;;23.70;53.70;;;;;;5048786;28;20044;-61
2022/09/18 02:34:20;;;;;;;0.17;0.17;;;23.70;53.70;;;;;;5049092;28;20236;-61
2022/09/18 02:37:18;;;;;;;0.10;0.10;;;23.70;53.70;;;;;;5048983;28;20063;-61
2022/09/18 02:40:20;;;;;;;0.25;0.17;;;23.70;53.70;;;;;;5048661;28;20045;-61
2022/09/18 02:43:09;;;;;;;0.20;0.20;;;23.70;53.70;;;;;;5033901;28;20523;-61
2022/09/18 02:45:52;;;;;;;0.10;0.10;;;23.70;53.60;;;;;;5048523;28;20055;-62
2022/09/18 02:48:36;;;;;;;0.10;0.10;;;23.70;53.60;;;;;;5048347;28;20049;-61
2022/09/18 02:51:27;;;;;;;0.10;0.10;;;23.70;53.50;;;;;;5049234;28;20067;-61
2022/09/18 02:54:18;;;;;;;0.20;0.20;;;23.70;53.50;;;;;;5048127;28;20143;-61
2022/09/18 02:56:54;;;;;;;0.13;0.13;;;23.70;53.40;;;;;;5043516;28;20056;-61
2022/09/18 02:59:35;;;;;;;0.10;0.10;;;23.70;53.40;;;;;;5047721;28;20528;-61
2022/09/18 03:02:05;;;;;;;0.40;0.40;;;23.60;53.30;;;;;;5048729;28;20599;-61
2022/09/18 03:04:33;;;;;;;0.22;0.22;;;23.60;53.30;;;;;;5047996;28;20127;-61
2022/09/18 03:07:00;;;;;;;0.30;0.30;;;23.70;53.30;;;;;;5031182;28;20269;-61
2022/09/18 03:09:28;;;;;;;0.88;0.30;;;23.70;53.30;;;;;;5048179;28;20512;-61
2022/09/18 03:11:55;;;;;;;0.20;0.17;;;23.70;53.30;;;;;;5048050;28;20051;-61
2022/09/18 03:14:22;;;;;;;0.17;0.17;;;23.70;53.30;;;;;;5048249;28;20067;-61
2022/09/18 03:16:50;;;;;;;0.20;0.20;;;23.60;53.30;;;;;;5047622;28;20400;-61
2022/09/18 03:19:17;;;;;;;0.10;0.10;;;23.70;53.40;;;;;;5047946;28;20426;-61
2022/09/18 03:21:45;;;;;;;0.30;0.30;;;23.60;53.10;;;;;;5047809;28;20041;-61
2022/09/18 03:24:12;;;;;;;0.32;0.32;;;23.60;52.60;;;;;;5048057;28;20049;-62
2022/09/18 03:26:39;;;;;;;0.63;0.63;;;23.60;52.10;;;;;;5048177;28;20401;-61
2022/09/18 03:29:08;;;;;;;0.95;0.70;;;23.60;51.40;;;;;;5042860;28;20045;-62
2022/09/18 03:31:35;;;;;;;0.50;0.50;;;23.60;50.90;;;;;;5049022;28;20037;-65
2022/09/18 03:34:02;;;;;;;1.20;0.45;;;23.60;50.70;;;;;;5050358;28;20550;-65
2022/09/18 03:36:30;;;;;;;0.50;0.40;;;23.60;50.70;;;;;;5033755;28;20045;-65
2022/09/18 03:38:57;;;;;;;0.95;0.50;;;23.60;50.80;;;;;;5033414;28;20045;-65
2022/09/18 03:41:24;;;;;;;0.60;0.60;;;23.60;50.90;;;;;;5051397;28;20037;-65
2022/09/18 03:43:51;;;;;;;0.55;0.55;;;23.60;51.00;;;;;;5051167;28;20045;-65
2022/09/18 03:46:22;;;;;;;1.75;0.75;;;23.60;51.00;;;;;;5051424;28;20508;-65
2022/09/18 03:48:50;;;;;;;1.17;0.50;;;23.60;51.00;;;;;;5050817;28;20049;-65
2022/09/18 03:51:18;;;;;;;1.10;0.60;;;23.60;51.10;;;;;;5050709;28;20045;-65
2022/09/18 03:53:47;;;;;;;0.40;0.40;;;23.50;51.00;;;;;;5033322;28;20289;-66
2022/09/18 03:56:14;;;;;;;0.40;0.40;;;23.60;51.10;;;;;;5051062;28;20084;-65
2022/09/18 03:58:42;;;;;;;0.68;0.63;;;23.50;51.00;;;;;;5050834;28;20045;-65
2022/09/18 04:01:10;;;;;;;0.38;0.38;;;23.60;51.10;;;;;;5046639;28;20057;-61
2022/09/18 04:03:38;;;;;;;0.40;0.40;;;23.50;51.10;;;;;;5051087;28;20468;-65
2022/09/18 04:06:06;;;;;;;0.40;0.40;;;23.50;51.10;;;;;;5050930;28;20539;-65
2022/09/18 04:08:33;;;;;;;0.95;0.88;;;23.50;51.20;;;;;;5050885;28;20504;-65
2022/09/18 04:11:03;;;;;;;0.50;0.50;;;23.50;51.10;;;;;;5050819;28;20056;-65
2022/09/18 04:13:31;;;;;;;1.55;0.85;;;23.50;51.20;;;;;;5051265;28;20052;-65
2022/09/18 04:15:58;;;;;;;0.60;0.50;;;23.50;51.20;;;;;;5050582;28;20607;-65
2022/09/18 04:18:25;;;;;;;0.43;0.40;;;23.50;51.20;;;;;;5050872;28;20135;-65
2022/09/18 04:20:52;;;;;;;0.50;0.40;;;23.50;51.20;;;;;;5033034;28;20060;-65
2022/09/18 04:23:19;;;;;;;0.70;0.65;;;23.50;51.20;;;;;;5051159;28;20051;-65
2022/09/18 04:25:47;;;;;;;0.50;0.50;;;23.50;51.20;;;;;;5033023;28;20051;-65
2022/09/18 04:28:14;;;;;;;0.73;0.45;;;23.50;51.20;;;;;;5051739;28;20041;-65
2022/09/18 04:30:41;;;;;;;0.30;0.30;;;23.50;51.20;;;;;;5054039;28;20132;-64
2022/09/18 04:33:08;;;;;;;0.60;0.50;;;23.50;51.30;;;;;;5049528;28;20068;-65
2022/09/18 04:35:35;;;;;;;0.50;0.50;;;23.50;51.30;;;;;;5054344;28;20400;-62
2022/09/18 04:38:02;;;;;;;0.65;0.50;;;23.50;51.20;;;;;;5054448;28;20071;-65
2022/09/18 04:40:30;;;;;;;1.02;0.60;;;23.50;51.20;;;;;;5053983;28;20056;-65
2022/09/18 04:42:57;;;;;;;1.15;0.70;;;23.50;51.20;;;;;;5054986;28;20646;-65
2022/09/18 04:45:27;;;;;;;0.77;0.55;;;23.50;51.20;;;;;;5053917;28;20250;-65
2022/09/18 04:47:54;;;;;;;1.00;0.57;;;23.50;51.60;;;;;;5036619;28;20498;-65
2022/09/18 04:50:21;;;;;;;0.60;0.60;;;23.50;51.00;;;;;;5054144;28;20369;-65
2022/09/18 04:52:48;;;;;;;1.33;0.40;;;23.50;50.90;;;;;;5054072;28;20045;-65
2022/09/18 04:55:16;;;;;;;0.70;0.68;;;23.50;50.80;;;;;;5053939;28;20079;-65
2022/09/18 04:57:43;;;;;;;0.68;0.50;;;23.50;50.80;;;;;;5053569;28;20670;-65
2022/09/18 05:00:11;;;;;;;0.60;0.60;;;23.60;50.70;;;;;;5054144;28;20059;-65
2022/09/18 05:02:38;;;;;;;1.75;0.50;;;23.60;51.20;;;;;;5053812;28;20055;-65
2022/09/18 05:05:05;;;;;;;0.40;0.40;;;23.60;51.10;;;;;;5049209;28;20058;-65
2022/09/18 05:07:32;;;;;;;0.60;0.60;;;23.60;50.50;;;;;;5053607;28;20056;-65
2022/09/18 05:09:59;;;;;;;1.13;1.02;;;23.60;50.50;;;;;;5053632;28;20501;-63
2022/09/18 05:12:27;;;;;;;0.63;0.40;;;23.60;50.50;;;;;;5053763;28;20069;-65
2022/09/18 05:14:54;;;;;;;0.80;0.80;;;23.60;50.50;;;;;;5053209;28;20040;-65
2022/09/18 05:17:21;;;;;;;0.55;0.55;;;23.50;50.40;;;;;;5053508;28;20521;-65
2022/09/18 05:19:48;;;;;;;1.38;0.57;;;23.50;50.50;;;;;;5053155;28;20059;-65
2022/09/18 05:22:15;;;;;;;0.52;0.52;;;23.50;50.50;;;;;;5053311;28;20111;-65
2022/09/18 05:24:42;;;;;;;0.60;0.60;;;23.50;50.50;;;;;;5053792;28;20041;-65
2022/09/18 05:27:09;;;;;;;0.73;0.70;;;23.50;50.50;;;;;;5053386;28;20060;-65
2022/09/18 05:29:37;;;;;;;0.73;0.70;;;23.50;50.50;;;;;;5035598;28;20117;-65
2022/09/18 05:32:04;;;;;;;0.63;0.63;;;23.50;50.50;;;;;;5035847;28;20055;-65
2022/09/18 05:34:32;;;;;;;0.63;0.63;;;23.60;50.60;;;;;;5052944;28;20051;-65
2022/09/18 05:36:59;;;;;;;0.60;0.60;;;23.50;50.50;;;;;;5031139;28;20604;-65
2022/09/18 05:39:26;;;;;;;1.75;0.55;;;23.50;50.50;;;;;;5052937;28;20201;-65
2022/09/18 05:41:53;;;;;;;0.68;0.55;;;23.50;50.50;;;;;;5052735;28;20509;-65
2022/09/18 05:44:20;;;;;;;0.75;0.70;;;23.50;50.50;;;;;;5053139;28;20045;-65
2022/09/18 05:46:47;;;;;;;0.70;0.52;;;23.50;50.50;;;;;;5052509;28;20048;-66
2022/09/18 05:49:14;;;;;;;4.95;0.50;;;23.50;50.40;;;;;;5053769;28;20521;-65
2022/09/18 05:51:43;;;;;;;0.73;0.60;;;23.60;50.50;;;;;;5052082;28;20494;-65
2022/09/18 05:54:10;;;;;;;0.65;0.63;;;23.60;50.50;;;;;;5052881;28;20053;-65
2022/09/18 05:56:38;;;;;;;0.88;0.70;;;23.60;50.40;;;;;;5053060;28;20059;-65
2022/09/18 05:59:05;;;;;;;0.80;0.80;;;23.60;50.40;;;;;;5052525;28;20382;-65
2022/09/18 06:01:32;;;;;;;1.30;1.20;;;23.60;50.40;;;;;;5052730;28;20049;-65
2022/09/18 06:04:01;;;;;;;0.73;0.50;;;23.60;50.30;;;;;;5053163;28;20071;-65
2022/09/18 06:06:29;;;;;;;0.60;0.47;;;23.60;50.30;;;;;;5053349;28;20304;-66
2022/09/18 06:08:56;;;;;;;0.70;0.70;;;23.60;50.30;;;;;;5050410;28;20048;-66
2022/09/18 06:11:23;;;;;;;0.63;0.50;;;23.60;50.30;;;;;;5050832;28;20049;-62
2022/09/18 06:13:51;;;;;;;0.52;0.52;;;23.60;50.30;;;;;;5052933;28;20071;-62
2022/09/18 06:16:19;;;;;;;0.82;0.82;;;23.60;50.30;;;;;;5052500;28;20049;-65
2022/09/18 06:18:46;;;;;;;0.60;0.60;;;23.70;50.20;;;;;;5052846;28;20045;-65
2022/09/18 06:21:13;;;;;;;1.33;0.82;;;23.70;50.30;;;;;;5052521;28;20053;-65
2022/09/18 06:23:41;;;;;;;0.70;0.70;;;23.60;50.20;;;;;;5052572;28;20041;-66
2022/09/18 06:26:10;;;;;;;0.40;0.40;;;23.70;50.20;;;;;;5052274;28;20048;-66
2022/09/18 06:28:41;;;;;;;0.60;0.60;;;23.70;50.20;;;;;;5052695;28;20143;-65
2022/09/18 06:31:08;;;;;;;0.60;0.60;;;23.70;50.20;;;;;;5053005;28;20049;-64
2022/09/18 06:33:35;;;;;;;0.70;0.70;;;23.70;50.10;;;;;;5052694;28;20045;-65
2022/09/18 06:36:07;;;;;;;0.77;0.50;;;23.70;50.10;;;;;;5052471;28;20155;-65
2022/09/18 06:38:34;;;;;;;1.02;0.50;;;23.70;50.10;;;;;;5052727;28;20045;-65
2022/09/18 06:41:01;;;;;;;1.38;0.88;;;23.70;50.10;;;;;;5050781;28;20071;-66
2022/09/18 06:43:28;;;;;;;1.45;0.63;;;23.70;50.00;;;;;;5049090;28;20049;-66
2022/09/18 06:45:57;;;;;;;0.70;0.60;;;23.80;50.10;;;;;;5034436;28;20049;-65
2022/09/18 06:48:24;;;;;;;0.52;0.52;;;23.80;50.10;;;;;;5052201;28;20082;-65
2022/09/18 06:50:53;;;;;;;0.40;0.40;;;23.80;50.10;;;;;;5051883;28;20047;-65
2022/09/18 06:53:21;;;;;;;0.40;0.40;;;23.80;50.10;;;;;;5034728;28;20067;-65
2022/09/18 06:55:48;;;;;;;0.50;0.40;;;23.80;50.00;;;;;;5052951;28;20052;-65
2022/09/18 06:58:17;;;;;;;0.70;0.70;;;23.80;50.00;;;;;;5052243;28;20055;-65
2022/09/18 07:00:45;;;;;;;0.47;0.43;;;23.90;50.60;;;;;;5052774;28;20045;-65
2022/09/18 07:03:12;;;;;;;0.88;0.63;;;23.90;49.90;;;;;;5051744;28;20485;-62
2022/09/18 07:05:41;;;;;;;1.55;0.65;;;23.90;49.90;;;;;;5052032;28;20049;-65
2022/09/18 07:08:09;;;;;;;0.45;0.40;;;23.90;49.90;;;;;;5034796;28;20055;-66
2022/09/18 07:10:36;;;;;;;0.68;0.55;;;23.90;49.80;;;;;;5052324;28;20044;-66
2022/09/18 07:13:04;;;;;;;1.08;0.60;;;23.90;49.80;;;;;;5051559;28;20055;-66
2022/09/18 07:15:31;;;;;;;0.63;0.63;;;24.00;49.90;;;;;;5047392;28;20045;-65
2022/09/18 07:18:00;;;;;;;0.65;0.60;;;24.00;49.80;;;;;;5051313;28;20225;-65
2022/09/18 07:20:28;;;;;;;0.60;0.60;;;24.00;49.80;;;;;;5034272;28;20079;-65
2022/09/18 07:23:00;;;;;;;0.55;0.55;;;24.10;49.90;;;;;;5051153;28;20627;-65
2022/09/18 07:25:30;;;;;;;0.98;0.70;;;24.00;49.70;;;;;;5034139;28;20053;-65
2022/09/18 07:28:06;;;;;;;0.63;0.40;;;24.10;49.80;;;;;;5051811;28;20045;-66
2022/09/18 07:30:35;;;;;;;0.50;0.50;;;24.10;49.80;;;;;;5051488;28;20757;-66
2022/09/18 07:33:04;;;;;;;0.65;0.65;;;24.10;49.70;;;;;;5051419;28;20055;-66
2022/09/18 07:35:32;;;;;;;0.57;0.40;;;24.10;49.80;;;;;;5051667;28;20045;-65
2022/09/18 07:37:59;;;;;;;0.47;0.47;;;24.10;49.70;;;;;;5051751;28;20045;-66
2022/09/18 07:40:27;;;;;;;0.60;0.60;;;24.10;49.70;;;;;;5051728;28;20060;-66
2022/09/18 07:42:59;;;;;;;0.47;0.47;;;24.10;49.80;;;;;;5051977;28;20045;-66
2022/09/18 07:45:27;;;;;;;0.45;0.45;;;24.10;49.80;;;;;;5034461;28;20059;-66
2022/09/18 07:47:54;;;;;;;0.75;0.75;;;24.10;49.70;;;;;;5046754;28;20045;-65
2022/09/18 07:50:22;;;;;;;0.63;0.63;;;24.20;49.80;;;;;;5033942;28;20049;-65
2022/09/18 07:52:55;;;;;;;1.60;0.50;;;24.10;49.70;;;;;;5051179;28;20136;-66
2022/09/18 07:55:24;;;;;;;0.50;0.50;;;24.20;49.80;;;;;;5051317;28;20053;-65
2022/09/18 07:57:56;;;;;;;0.40;0.40;;;24.20;49.70;;;;;;5051380;28;20064;-65
2022/09/18 08:00:25;;;;;;;0.40;0.40;;;24.20;49.70;;;;;;5051812;28;20053;-65
2022/09/18 08:03:08;;;;;;;0.52;0.50;;;24.20;49.70;;;;;;5034793;28;20048;-66
2022/09/18 08:05:36;;;;;;;0.70;0.70;;;24.30;49.70;;;;;;5037491;28;20723;-65
2022/09/18 08:08:08;;;;;;;0.30;0.30;;;24.20;49.70;;;;;;5056004;28;20049;-65
2022/09/18 08:10:36;;;;;;;0.47;0.43;;;24.30;49.70;;;;;;5055052;28;20053;-65
2022/09/18 08:13:03;;;;;;;0.60;0.60;;;24.30;49.70;;;;;;5055694;28;20049;-65
2022/09/18 08:15:31;;;;;;;0.30;0.30;;;24.30;49.70;;;;;;5055397;28;20053;-65
2022/09/18 08:17:59;;;;;;;0.30;0.30;;;24.30;49.60;;;;;;5055467;28;20083;-65
2022/09/18 08:20:26;;;;;;;0.50;0.50;;;24.30;49.60;;;;;;5050857;28;20048;-65
2022/09/18 08:22:54;;;;;;;0.40;0.40;;;24.30;49.60;;;;;;5054843;28;20045;-65
2022/09/18 08:25:22;;;;;;;0.50;0.50;;;24.30;49.60;;;;;;5054924;28;20053;-66
2022/09/18 08:27:49;;;;;;;0.60;0.57;;;24.40;49.60;;;;;;5055234;28;20045;-65
2022/09/18 08:30:16;;;;;;;0.57;0.57;;;24.40;49.60;;;;;;5054721;28;20041;-65
2022/09/18 08:32:43;;;;;;;0.40;0.40;;;24.40;49.60;;;;;;5055000;28;20052;-66
2022/09/18 08:35:10;;;;;;;0.32;0.32;;;24.40;49.50;;;;;;5036238;28;20044;-66
2022/09/18 08:37:37;;;;;;;0.50;0.50;;;24.40;49.50;;;;;;5054776;28;20481;-66
2022/09/18 08:40:07;;;;;;;0.47;0.40;;;24.50;49.50;;;;;;5054619;28;20037;-66
2022/09/18 08:42:54;;;;;;;;;;;24.50;49.50;;;;;;5055268;28;20049;-65
2022/09/18 08:45:46;;;;;;;0.32;0.32;;;24.50;49.40;;;;;;5053690;28;19921;-66
2022/09/18 08:48:21;;;;;;;0.35;0.35;;;24.50;49.40;;;;;;5053799;28;20040;-66
2022/09/18 08:50:57;;;;;;;3.25;0.55;;;24.50;49.40;;;;;;5035734;28;20056;-66
2022/09/18 08:53:33;;;;;;;0.20;0.20;;;24.50;49.40;;;;;;5051746;28;20512;-66
2022/09/18 08:56:03;;;;;;;1.85;0.65;;;24.50;49.40;;;;;;5053966;28;20059;-65
2022/09/18 08:58:44;;;;;;;0.63;0.63;;;24.60;49.40;;;;;;5053728;28;20453;-66
2022/09/18 09:01:16;;;;;;;1.08;0.45;;;24.60;49.40;;;;;;5053845;28;20249;-66
2022/09/18 09:04:06;;;;;;;0.85;0.55;;;24.60;49.30;;;;;;5052851;28;20037;-66
2022/09/18 09:07:13;;;;;;;0.63;0.40;;;24.70;49.30;;;;;;5053176;28;20067;-64
2022/09/18 09:10:05;;;;;;;0.50;0.50;;;24.70;49.30;;;;;;5053610;28;20477;-66
2022/09/18 09:13:12;;;;;;;0.82;0.40;;;24.70;49.20;;;;;;5053772;28;20633;-66
2022/09/18 09:15:58;;;;;;;0.52;0.50;;;24.70;49.20;;;;;;5052110;28;20531;-66
2022/09/18 09:18:34;;;;;;;0.30;0.30;;;24.70;49.10;;;;;;5053362;28;20064;-66
2022/09/18 09:21:22;;;;;;;0.47;0.47;;;24.70;49.10;;;;;;5053939;28;20057;-65
2022/09/18 09:24:23;;;;;;;0.60;0.60;;;24.80;49.10;;;;;;5048547;28;20441;-66
2022/09/18 09:26:52;;;;;;;0.30;0.30;;;24.80;49.00;;;;;;5053638;28;20551;-66
2022/09/18 09:29:28;;;;;;;0.40;0.40;;;24.80;49.00;;;;;;5053018;28;20053;-66
2022/09/18 09:32:17;;;;;;;0.65;0.65;;;24.80;48.90;;;;;;5053760;28;20053;-66
2022/09/18 09:34:52;;;;;;;0.30;0.30;;;24.90;49.00;;;;;;5052642;28;20049;-66
2022/09/18 09:37:26;;;;;;;0.32;0.32;;;24.90;48.90;;;;;;5053538;28;20045;-65
2022/09/18 09:40:04;;;;;;;;;;;24.90;48.90;;;;;;5036655;28;20045;-66
2022/09/18 09:42:46;;;;;;;0.68;0.57;;;24.90;48.80;;;;;;5053231;28;19921;-65
2022/09/18 09:45:37;;;;;;;0.30;0.30;;;24.90;48.80;;;;;;5052893;28;20044;-66
2022/09/18 09:48:25;;;;;;;0.30;0.30;;;24.90;48.80;;;;;;5053001;28;20143;-65
2022/09/18 09:51:02;;;;;;;0.55;0.43;;;24.90;48.70;;;;;;5035568;28;20045;-66
2022/09/18 09:53:29;;;;;;;0.43;0.30;;;25.00;48.70;;;;;;5052729;28;20126;-66
2022/09/18 09:56:13;;;;;;;1.00;0.52;;;25.00;48.70;;;;;;5047246;28;20045;-66
2022/09/18 09:58:59;;;;;;;0.57;0.57;;;25.00;48.60;;;;;;5053130;28;20560;-64
2022/09/18 10:01:39;;;;;;;0.60;0.30;;;25.00;48.60;;;;;;5051855;28;20254;-62
2022/09/18 10:04:36;;;;;;;0.28;0.25;;;25.10;48.60;;;;;;5052727;28;20594;-61
2022/09/18 10:07:16;;;;;;;0.40;0.40;;;25.10;48.60;;;;;;5052389;28;20060;-62
2022/09/18 10:10:15;;;;;;;0.57;0.52;;;25.10;48.50;;;;;;5052952;28;20586;-65
2022/09/18 10:12:52;;;;;;;0.45;0.32;;;25.10;48.50;;;;;;5038268;28;20045;-65
2022/09/18 10:15:37;;;;;;;0.40;0.40;;;25.10;48.40;;;;;;5052546;28;20055;-65
2022/09/18 10:18:12;;;;;;;0.30;0.30;;;25.10;48.40;;;;;;5052438;28;20048;-65
2022/09/18 10:20:44;;;;;;;0.30;0.30;;;25.10;48.40;;;;;;5052512;28;20045;-65
2022/09/18 10:23:19;;;;;;;0.22;0.22;;;25.20;48.40;;;;;;5052695;28;20124;-65
2022/09/18 10:25:54;;;;;;;0.30;0.30;;;25.20;48.30;;;;;;5034542;28;20045;-66
2022/09/18 10:28:24;;;;;;;0.50;0.43;;;25.20;48.30;;;;;;5048045;28;20045;-66
2022/09/18 10:31:08;;;;;;;0.32;0.20;;;25.30;48.20;;;;;;5051684;28;20051;-65
2022/09/18 10:33:41;;;;;;;0.45;0.40;;;25.30;48.00;;;;;;5052559;28;20355;-66
2022/09/18 10:36:18;;;;;;;0.30;0.30;;;25.30;47.90;;;;;;5051634;28;20069;-65
2022/09/18 10:38:46;;;;;;;0.32;0.20;;;25.40;47.80;;;;;;5052341;28;20040;-65
2022/09/18 10:41:34;;;;;;;0.50;0.50;;;25.40;47.70;;;;;;5052188;28;20045;-65
2022/09/18 10:44:18;;;;;;;0.30;0.30;;;25.50;47.60;;;;;;5051968;28;20048;-66
2022/09/18 10:47:08;;;;;;;0.40;0.40;;;25.60;47.50;;;;;;5051634;28;20237;-66
2022/09/18 10:49:53;;;;;;;0.37;0.37;;;25.60;47.40;;;;;;5051913;28;20041;-65
2022/09/18 10:52:37;;;;;;;0.20;0.20;;;25.70;47.30;;;;;;5051520;28;20067;-62
2022/09/18 10:55:18;;;;;;;0.35;0.20;;;25.70;47.10;;;;;;5051891;28;20037;-66
2022/09/18 10:58:13;;;;;;;0.17;0.17;;;25.70;47.10;;;;;;5048717;28;20080;-66
2022/09/18 11:00:55;;;;;;;0.25;0.25;;;25.70;47.10;;;;;;5041976;28;20041;-66
2022/09/18 11:03:38;;;;;;;0.30;0.30;;;25.70;47.20;;;;;;5035645;28;20053;-61
2022/09/18 11:06:22;;;;;;;0.65;0.57;;;25.70;47.30;;;;;;5049312;28;20044;-65
2022/09/18 11:08:51;;;;;;;0.25;0.20;;;25.70;47.30;;;;;;5049384;28;20084;-61
2022/09/18 11:11:24;;;;;;;0.10;0.10;;;25.70;47.30;;;;;;5051200;28;20128;-66
2022/09/18 11:14:14;;;;;;;0.28;0.28;;;25.70;47.20;;;;;;5033486;28;20049;-66
2022/09/18 11:16:44;;;;;;;0.20;0.20;;;25.80;47.20;;;;;;5049203;28;20045;-62
2022/09/18 11:19:17;;;;;;;;;;;25.70;47.10;;;;;;5050622;28;20049;-66
2022/09/18 11:21:47;;;;;;;0.10;0.10;;;25.70;47.10;;;;;;5050739;28;19921;-66
2022/09/18 11:24:20;;;;;;;0.45;0.25;;;25.80;47.10;;;;;;5051248;28;20048;-65
2022/09/18 11:26:56;;;;;;;0.17;0.17;;;25.80;47.00;;;;;;5050535;28;20509;-63
2022/09/18 11:29:31;;;;;;;0.15;0.15;;;25.90;47.10;;;;;;5049390;28;20048;-65
2022/09/18 11:32:20;;;;;;;1.17;0.35;;;25.80;46.90;;;;;;5045449;28;20049;-66
2022/09/18 11:34:51;;;;;;;0.38;0.20;;;25.90;46.90;;;;;;5050235;28;20443;-66
2022/09/18 11:37:35;;;;;;;0.60;0.30;;;25.90;46.90;;;;;;5046191;28;20415;-65
2022/09/18 11:40:26;;;;;;;0.22;0.22;;;25.90;46.80;;;;;;5049516;28;20056;-65
2022/09/18 11:42:54;;;;;;;0.52;0.30;;;25.90;46.70;;;;;;5050240;28;20037;-66
2022/09/18 11:45:33;;;;;;;0.20;0.20;;;26.00;46.70;;;;;;5050621;28;20528;-66
2022/09/18 11:48:37;;;;;;;0.40;0.30;;;26.00;46.60;;;;;;5041892;28;20580;-65
2022/09/18 11:51:19;;;;;;;0.30;0.30;;;26.00;46.50;;;;;;5049938;28;20049;-66
2022/09/18 11:53:54;;;;;;;0.22;0.22;;;26.00;46.50;;;;;;5050442;28;20558;-66
2022/09/18 11:56:34;;;;;;;0.30;0.30;;;26.00;46.50;;;;;;5048927;28;20048;-66
2022/09/18 11:59:10;;;;;;;0.22;0.22;;;26.00;46.50;;;;;;5041318;28;20060;-66
2022/09/18 12:01:56;;;;;;;1.85;0.30;;;25.90;46.60;;;;;;5050212;28;20052;-66
2022/09/18 12:04:48;;;;;;;0.20;0.20;;;25.90;46.50;;;;;;5045517;28;20535;-66
2022/09/18 12:07:55;;;;;;;0.10;0.10;;;25.90;46.60;;;;;;5048262;28;20045;-66
2022/09/18 12:11:00;;;;;;;0.15;0.15;;;25.90;46.50;;;;;;5039008;28;20047;-62
2022/09/18 12:13:49;;;;;;;0.20;0.20;;;25.90;46.50;;;;;;5048934;28;20049;-66
2022/09/18 12:16:28;;;;;;;0.30;0.30;;;25.90;46.50;;;;;;5013102;28;20037;-66
2022/09/18 12:19:08;;;;;;;0.10;0.10;;;25.90;46.40;;;;;;5048928;28;20148;-66
2022/09/18 12:21:45;;;;;;;0.20;0.20;;;25.90;46.50;;;;;;5050786;28;20045;-66
2022/09/18 12:24:15;;;;;;;0.35;0.22;;;25.90;46.50;;;;;;5049778;28;20479;-66
2022/09/18 12:26:57;;;;;;;0.30;0.30;;;25.90;46.40;;;;;;5047835;28;20041;-66
2022/09/18 12:29:49;;;;;;;0.30;0.13;;;25.90;46.40;;;;;;5050123;28;20423;-66
2022/09/18 12:32:40;;;;;;;0.32;0.10;;;25.90;46.20;;;;;;5050956;28;20401;-63
2022/09/18 12:35:43;;;;;;;0.20;0.20;;;26.00;46.40;;;;;;5045851;28;20049;-66
2022/09/18 12:38:30;;;;;;;0.25;0.10;;;26.00;46.50;;;;;;5042226;28;20045;-66
2022/09/18 12:41:28;;;;;;;0.45;0.20;;;26.00;46.50;;;;;;5037910;28;20048;-66
2022/09/18 12:44:20;;;;;;;0.22;0.15;;;26.00;46.40;;;;;;5030930;28;20042;-66
2022/09/18 12:47:21;;;;;;;0.10;0.10;;;26.00;46.40;;;;;;5031084;28;20049;-65
2022/09/18 12:50:17;;;;;;;0.20;0.20;;;26.00;46.40;;;;;;5032369;28;20080;-66
2022/09/18 12:53:05;;;;;;;0.17;0.17;;;26.00;46.40;;;;;;5020633;28;20509;-66
2022/09/18 12:56:02;;;;;;;0.10;0.10;;;26.00;46.30;;;;;;5017789;28;20477;-65
2022/09/18 12:58:57;;;;;;;0.17;0.10;;;26.00;46.30;;;;;;5034360;28;20249;-66
2022/09/18 13:01:34;;;;;;;0.30;0.30;;;26.00;46.30;;;;;;5033932;28;20125;-66
2022/09/18 13:04:29;;;;;;;0.10;0.10;;;26.00;46.40;;;;;;5034205;28;20053;-66
2022/09/18 13:07:04;;;;;;;0.10;0.10;;;26.00;46.50;;;;;;5033848;28;20041;-65
2022/09/18 13:09:40;;;;;;;0.28;0.20;;;26.00;46.50;;;;;;5028927;28;20053;-66
2022/09/18 13:12:17;;;;;;;1.85;0.17;;;25.90;46.40;;;;;;5034067;28;20038;-65
2022/09/18 13:14:50;;;;;;;0.20;0.20;;;25.90;46.40;;;;;;5034019;28;20101;-66
2022/09/18 13:17:27;;;;;;;0.10;0.10;;;25.90;46.40;;;;;;5033788;28;20045;-65
2022/09/18 13:20:06;;;;;;;0.20;0.20;;;26.00;46.40;;;;;;5033339;28;20049;-66
2022/09/18 13:22:36;;;;;;;0.10;0.10;;;26.00;46.40;;;;;;5033711;28;20104;-66
2022/09/18 13:25:19;;;;;;;0.10;0.10;;;26.00;46.40;;;;;;5015520;28;20046;-66
2022/09/18 13:27:46;;;;;;;0.20;0.20;;;26.00;46.40;;;;;;5033827;28;20053;-66